sensor_id;sensor_type;location;lat;lon;timestamp;pressure;altitude;pressure_sealevel;temperature;humidity
75221;BME280;63802;53.232;6.570;2023-05-17T00:02:05;102400.06;;;7.37;100.00
75221;BME280;63802;53.232;6.570;2023-05-17T00:04:31;102417.38;;;7.55;100.00
75221;BME280;63802;53.232;6.570;2023-05-17T00:06:57;102434.47;;;7.69;100.00
75221;BME280;63802;53.232;6.570;2023-05-17T00:09:23;102432.47;;;7.74;100.00
75221;BME280;63802;53.232;6.570;2023-05-17T00:11:48;102439.72;;;7.79;100.00
75221;BME280;63802;53.232;6.570;2023-05-17T00:14:14;102417.38;;;7.68;100.00
75221;BME280;63802;53.232;6.570;2023-05-17T00:16:40;102440.63;;;7.74;100.00
75221;BME280;63802;53.232;6.570;2023-05-17T00:19:06;102430.84;;;7.73;100.00
75221;BME280;63802;53.232;6.570;2023-05-17T00:21:33;102395.03;;;7.44;100.00
75221;BME280;63802;53.232;6.570;2023-05-17T00:23:59;102417.59;;;7.58;100.00
75221;BME280;63802;53.232;6.570;2023-05-17T00:26:24;102402.78;;;7.37;100.00
75221;BME280;63802;53.232;6.570;2023-05-17T00:28:49;102432.88;;;7.54;100.00
75221;BME280;63802;53.232;6.570;2023-05-17T00:31:15;102408.31;;;7.32;100.00
75221;BME280;63802;53.232;6.570;2023-05-17T00:33:41;102407.31;;;7.28;100.00
75221;BME280;63802;53.232;6.570;2023-05-17T00:36:06;102429.94;;;7.37;100.00
75221;BME280;63802;53.232;6.570;2023-05-17T00:38:32;102436.09;;;7.42;100.00
75221;BME280;63802;53.232;6.570;2023-05-17T00:40:58;102407.72;;;7.21;100.00
75221;BME280;63802;53.232;6.570;2023-05-17T00:43:23;102414.97;;;7.26;100.00
75221;BME280;63802;53.232;6.570;2023-05-17T00:45:50;102442.34;;;7.43;100.00
75221;BME280;63802;53.232;6.570;2023-05-17T00:48:17;102412.44;;;7.29;100.00
75221;BME280;63802;53.232;6.570;2023-05-17T00:50:45;102430.88;;;7.46;100.00
75221;BME280;63802;53.232;6.570;2023-05-17T00:53:11;102421.28;;;7.49;100.00
75221;BME280;63802;53.232;6.570;2023-05-17T00:55:43;102403.91;;;7.36;100.00
75221;BME280;63802;53.232;6.570;2023-05-17T00:58:13;102445.75;;;7.62;100.00
75221;BME280;63802;53.232;6.570;2023-05-17T01:00:39;102438.41;;;7.63;100.00
75221;BME280;63802;53.232;6.570;2023-05-17T01:03:05;102448.88;;;7.69;100.00
75221;BME280;63802;53.232;6.570;2023-05-17T01:05:31;102448.38;;;7.67;100.00
75221;BME280;63802;53.232;6.570;2023-05-17T01:07:56;102450.28;;;7.67;100.00
75221;BME280;63802;53.232;6.570;2023-05-17T01:10:30;102443.53;;;7.64;100.00
75221;BME280;63802;53.232;6.570;2023-05-17T01:13:07;102450.19;;;7.58;100.00
75221;BME280;63802;53.232;6.570;2023-05-17T01:15:37;102456.22;;;7.55;100.00
75221;BME280;63802;53.232;6.570;2023-05-17T01:18:11;102448.34;;;7.54;100.00
75221;BME280;63802;53.232;6.570;2023-05-17T01:20:43;102450.38;;;7.48;100.00
75221;BME280;63802;53.232;6.570;2023-05-17T01:26:09;102448.34;;;7.54;100.00
75221;BME280;63802;53.232;6.570;2023-05-17T01:28:39;102442.66;;;7.55;100.00
75221;BME280;63802;53.232;6.570;2023-05-17T01:31:07;102442.03;;;7.58;100.00
75221;BME280;63802;53.232;6.570;2023-05-17T01:33:33;102459.25;;;7.67;100.00
75221;BME280;63802;53.232;6.570;2023-05-17T01:35:58;102458.63;;;7.70;100.00
75221;BME280;63802;53.232;6.570;2023-05-17T01:38:24;102452.00;;;7.76;100.00
75221;BME280;63802;53.232;6.570;2023-05-17T01:40:55;102460.63;;;7.78;100.00
75221;BME280;63802;53.232;6.570;2023-05-17T01:46:42;102468.06;;;7.73;100.00
75221;BME280;63802;53.232;6.570;2023-05-17T01:49:15;102464.69;;;7.67;100.00
75221;BME280;63802;53.232;6.570;2023-05-17T01:51:47;102467.09;;;7.55;100.00
75221;BME280;63802;53.232;6.570;2023-05-17T01:54:14;102470.50;;;7.47;100.00
75221;BME280;63802;53.232;6.570;2023-05-17T01:56:47;102475.75;;;7.43;100.00
75221;BME280;63802;53.232;6.570;2023-05-17T01:59:19;102475.53;;;7.40;100.00
75221;BME280;63802;53.232;6.570;2023-05-17T02:01:47;102481.94;;;7.30;100.00
75221;BME280;63802;53.232;6.570;2023-05-17T02:04:13;102475.19;;;7.14;100.00
75221;BME280;63802;53.232;6.570;2023-05-17T02:06:39;102480.31;;;7.16;100.00
75221;BME280;63802;53.232;6.570;2023-05-17T02:09:04;102466.91;;;7.06;100.00
75221;BME280;63802;53.232;6.570;2023-05-17T02:11:29;102471.84;;;7.04;100.00
75221;BME280;63802;53.232;6.570;2023-05-17T02:13:56;102473.88;;;7.12;100.00
75221;BME280;63802;53.232;6.570;2023-05-17T02:16:23;102485.47;;;7.17;100.00
75221;BME280;63802;53.232;6.570;2023-05-17T02:18:48;102473.28;;;7.15;100.00
75221;BME280;63802;53.232;6.570;2023-05-17T02:21:14;102482.31;;;7.10;100.00
75221;BME280;63802;53.232;6.570;2023-05-17T02:23:39;102474.28;;;7.05;100.00
75221;BME280;63802;53.232;6.570;2023-05-17T02:26:04;102482.03;;;7.12;100.00
75221;BME280;63802;53.232;6.570;2023-05-17T02:28:30;102480.13;;;7.12;100.00
75221;BME280;63802;53.232;6.570;2023-05-17T02:30:55;102493.06;;;7.15;100.00
75221;BME280;63802;53.232;6.570;2023-05-17T02:33:21;102495.88;;;7.10;100.00
75221;BME280;63802;53.232;6.570;2023-05-17T02:35:50;102498.97;;;7.04;100.00
75221;BME280;63802;53.232;6.570;2023-05-17T02:38:15;102489.31;;;6.98;100.00
75221;BME280;63802;53.232;6.570;2023-05-17T02:40:41;102493.94;;;6.97;100.00
75221;BME280;63802;53.232;6.570;2023-05-17T02:43:06;102502.38;;;6.96;100.00
75221;BME280;63802;53.232;6.570;2023-05-17T02:45:32;102501.78;;;6.99;100.00
75221;BME280;63802;53.232;6.570;2023-05-17T02:47:57;102500.75;;;6.95;100.00
75221;BME280;63802;53.232;6.570;2023-05-17T02:50:23;102507.63;;;7.06;100.00
75221;BME280;63802;53.232;6.570;2023-05-17T02:52:48;102480.84;;;6.86;100.00
75221;BME280;63802;53.232;6.570;2023-05-17T02:55:13;102509.84;;;7.04;100.00
75221;BME280;63802;53.232;6.570;2023-05-17T02:57:39;102514.69;;;7.07;100.00
75221;BME280;63802;53.232;6.570;2023-05-17T03:00:05;102528.16;;;7.12;100.00
75221;BME280;63802;53.232;6.570;2023-05-17T03:02:31;102519.53;;;7.10;100.00
75221;BME280;63802;53.232;6.570;2023-05-17T03:04:56;102519.53;;;7.10;100.00
75221;BME280;63802;53.232;6.570;2023-05-17T03:07:22;102520.03;;;7.12;100.00
75221;BME280;63802;53.232;6.570;2023-05-17T03:09:50;102517.91;;;7.09;100.00
75221;BME280;63802;53.232;6.570;2023-05-17T03:12:15;102503.41;;;7.00;100.00
75221;BME280;63802;53.232;6.570;2023-05-17T03:14:41;102523.97;;;7.19;100.00
75221;BME280;63802;53.232;6.570;2023-05-17T03:17:06;102521.53;;;7.18;100.00
75221;BME280;63802;53.232;6.570;2023-05-17T03:19:32;102534.75;;;7.24;100.00
75221;BME280;63802;53.232;6.570;2023-05-17T03:21:57;102526.47;;;7.16;100.00
75221;BME280;63802;53.232;6.570;2023-05-17T03:24:22;102505.00;;;7.01;100.00
75221;BME280;63802;53.232;6.570;2023-05-17T03:26:48;102528.16;;;7.12;100.00
75221;BME280;63802;53.232;6.570;2023-05-17T03:29:13;102542.25;;;7.14;100.00
75221;BME280;63802;53.232;6.570;2023-05-17T03:31:39;102548.25;;;7.11;100.00
75221;BME280;63802;53.232;6.570;2023-05-17T03:34:04;102543.06;;;7.14;100.00
75221;BME280;63802;53.232;6.570;2023-05-17T03:36:30;102531.56;;;7.04;100.00
75221;BME280;63802;53.232;6.570;2023-05-17T03:38:55;102560.50;;;7.27;100.00
75221;BME280;63802;53.232;6.570;2023-05-17T03:41:21;102564.00;;;7.27;100.00
75221;BME280;63802;53.232;6.570;2023-05-17T03:43:47;102559.19;;;7.24;100.00
75221;BME280;63802;53.232;6.570;2023-05-17T03:46:12;102551.81;;;7.25;100.00
75221;BME280;63802;53.232;6.570;2023-05-17T03:48:38;102556.00;;;7.36;100.00
75221;BME280;63802;53.232;6.570;2023-05-17T03:51:04;102558.22;;;7.34;100.00
75221;BME280;63802;53.232;6.570;2023-05-17T03:53:29;102546.13;;;7.26;100.00
75221;BME280;63802;53.232;6.570;2023-05-17T03:55:55;102530.97;;;7.07;99.87
75221;BME280;63802;53.232;6.570;2023-05-17T03:58:20;102554.25;;;7.26;97.44
75221;BME280;63802;53.232;6.570;2023-05-17T04:00:45;102554.63;;;7.20;96.65
75221;BME280;63802;53.232;6.570;2023-05-17T04:03:11;102544.22;;;7.08;96.81
75221;BME280;63802;53.232;6.570;2023-05-17T04:05:38;102588.34;;;7.32;95.66
75221;BME280;63802;53.232;6.570;2023-05-17T04:08:05;102589.16;;;7.33;95.90
75221;BME280;63802;53.232;6.570;2023-05-17T04:10:31;102552.53;;;7.17;95.20
75221;BME280;63802;53.232;6.570;2023-05-17T04:12:56;102596.66;;;7.41;95.76
75221;BME280;63802;53.232;6.570;2023-05-17T04:15:21;102593.94;;;7.41;95.04
75221;BME280;63802;53.232;6.570;2023-05-17T04:17:47;102592.38;;;7.35;95.58
75221;BME280;63802;53.232;6.570;2023-05-17T04:20:12;102596.72;;;7.36;95.75
75221;BME280;63802;53.232;6.570;2023-05-17T04:22:38;102603.16;;;7.40;94.43
75221;BME280;63802;53.232;6.570;2023-05-17T04:25:03;102591.16;;;7.27;94.83
75221;BME280;63802;53.232;6.570;2023-05-17T04:27:29;102606.56;;;7.32;95.04
75221;BME280;63802;53.232;6.570;2023-05-17T04:29:54;102613.53;;;7.38;93.87
75221;BME280;63802;53.232;6.570;2023-05-17T04:32:20;102617.56;;;7.40;94.17
75221;BME280;63802;53.232;6.570;2023-05-17T04:34:45;102609.03;;;7.47;93.55
75221;BME280;63802;53.232;6.570;2023-05-17T04:37:12;102617.41;;;7.51;93.80
75221;BME280;63802;53.232;6.570;2023-05-17T04:39:37;102617.59;;;7.54;93.83
75221;BME280;63802;53.232;6.570;2023-05-17T04:42:02;102634.22;;;7.66;93.09
75221;BME280;63802;53.232;6.570;2023-05-17T04:44:28;102640.31;;;7.77;92.18
75221;BME280;63802;53.232;6.570;2023-05-17T04:46:53;102600.31;;;7.64;90.46
75221;BME280;63802;53.232;6.570;2023-05-17T04:49:19;102641.63;;;7.79;89.92
75221;BME280;63802;53.232;6.570;2023-05-17T04:51:44;102643.22;;;7.80;89.38
75221;BME280;63802;53.232;6.570;2023-05-17T04:54:10;102645.66;;;7.82;89.30
75221;BME280;63802;53.232;6.570;2023-05-17T04:56:36;102653.09;;;7.90;89.08
75221;BME280;63802;53.232;6.570;2023-05-17T04:59:02;102658.53;;;7.90;89.28
75221;BME280;63802;53.232;6.570;2023-05-17T05:01:27;102660.34;;;7.94;90.19
75221;BME280;63802;53.232;6.570;2023-05-17T05:03:56;102655.94;;;7.98;87.59
75221;BME280;63802;53.232;6.570;2023-05-17T05:06:21;102651.69;;;7.92;87.47
75221;BME280;63802;53.232;6.570;2023-05-17T05:08:47;102664.31;;;8.02;86.81
75221;BME280;63802;53.232;6.570;2023-05-17T05:11:12;102664.44;;;8.10;85.27
75221;BME280;63802;53.232;6.570;2023-05-17T05:13:41;102662.63;;;8.06;85.82
75221;BME280;63802;53.232;6.570;2023-05-17T05:16:07;102675.22;;;8.16;86.72
75221;BME280;63802;53.232;6.570;2023-05-17T05:18:32;102684.69;;;8.18;85.26
75221;BME280;63802;53.232;6.570;2023-05-17T05:20:58;102676.81;;;8.17;84.70
75221;BME280;63802;53.232;6.570;2023-05-17T05:23:26;102668.84;;;8.06;84.31
75221;BME280;63802;53.232;6.570;2023-05-17T05:25:55;102694.13;;;8.21;85.53
75221;BME280;63802;53.232;6.570;2023-05-17T05:28:20;102710.53;;;8.34;85.65
75221;BME280;63802;53.232;6.570;2023-05-17T05:30:45;102698.59;;;8.30;85.52
75221;BME280;63802;53.232;6.570;2023-05-17T05:33:11;102708.97;;;8.28;85.31
75221;BME280;63802;53.232;6.570;2023-05-17T05:35:36;102713.78;;;8.18;85.29
75221;BME280;63802;53.232;6.570;2023-05-17T05:38:02;102716.78;;;8.02;84.40
75221;BME280;63802;53.232;6.570;2023-05-17T05:40:27;102705.91;;;8.02;82.78
75221;BME280;63802;53.232;6.570;2023-05-17T05:42:52;102710.16;;;8.08;80.24
75221;BME280;63802;53.232;6.570;2023-05-17T05:45:18;102710.16;;;8.22;79.47
75221;BME280;63802;53.232;6.570;2023-05-17T05:47:43;102719.09;;;8.41;79.40
75221;BME280;63802;53.232;6.570;2023-05-17T05:50:09;102712.66;;;8.51;77.75
75221;BME280;63802;53.232;6.570;2023-05-17T05:52:35;102718.78;;;8.70;78.18
75221;BME280;63802;53.232;6.570;2023-05-17T05:55:01;102721.28;;;8.94;76.91
75221;BME280;63802;53.232;6.570;2023-05-17T05:57:26;102690.44;;;8.85;80.10
75221;BME280;63802;53.232;6.570;2023-05-17T05:59:52;102707.00;;;9.24;76.54
75221;BME280;63802;53.232;6.570;2023-05-17T06:02:17;102718.75;;;9.47;76.72
75221;BME280;63802;53.232;6.570;2023-05-17T06:04:45;102700.56;;;9.20;75.41
75221;BME280;63802;53.232;6.570;2023-05-17T06:07:11;102692.91;;;9.08;75.75
75221;BME280;63802;53.232;6.570;2023-05-17T06:09:36;102684.38;;;9.01;75.43
75221;BME280;63802;53.232;6.570;2023-05-17T06:12:02;102721.19;;;9.34;76.19
75221;BME280;63802;53.232;6.570;2023-05-17T06:14:28;102722.84;;;9.22;75.71
75221;BME280;63802;53.232;6.570;2023-05-17T06:16:53;102742.94;;;9.26;76.65
75221;BME280;63802;53.232;6.570;2023-05-17T06:19:18;102742.44;;;9.10;78.15
75221;BME280;63802;53.232;6.570;2023-05-17T06:21:44;102721.06;;;8.90;79.44
75221;BME280;63802;53.232;6.570;2023-05-17T06:24:10;102753.75;;;9.04;79.89
75221;BME280;63802;53.232;6.570;2023-05-17T06:26:35;102765.28;;;8.87;80.08
75221;BME280;63802;53.232;6.570;2023-05-17T06:29:01;102768.28;;;8.86;82.62
75221;BME280;63802;53.232;6.570;2023-05-17T06:31:26;102770.09;;;8.90;83.07
75221;BME280;63802;53.232;6.570;2023-05-17T06:33:51;102769.09;;;8.86;83.07
75221;BME280;63802;53.232;6.570;2023-05-17T06:36:17;102771.28;;;8.98;83.81
75221;BME280;63802;53.232;6.570;2023-05-17T06:38:42;102784.00;;;9.02;84.57
75221;BME280;63802;53.232;6.570;2023-05-17T06:41:08;102786.44;;;9.04;83.90
75221;BME280;63802;53.232;6.570;2023-05-17T06:43:36;102793.28;;;9.01;84.31
75221;BME280;63802;53.232;6.570;2023-05-17T06:46:01;102773.72;;;8.99;84.97
75221;BME280;63802;53.232;6.570;2023-05-17T06:48:26;102780.66;;;9.05;83.85
75221;BME280;63802;53.232;6.570;2023-05-17T06:50:52;102784.81;;;9.16;82.52
75221;BME280;63802;53.232;6.570;2023-05-17T06:53:17;102799.75;;;9.19;79.93
75221;BME280;63802;53.232;6.570;2023-05-17T06:55:43;102802.34;;;9.24;80.39
75221;BME280;63802;53.232;6.570;2023-05-17T06:58:09;102780.03;;;9.22;81.46
75221;BME280;63802;53.232;6.570;2023-05-17T07:00:35;102808.78;;;9.41;79.87
75221;BME280;63802;53.232;6.570;2023-05-17T07:03:01;102791.22;;;9.48;78.39
75221;BME280;63802;53.232;6.570;2023-05-17T07:05:26;102808.09;;;9.72;78.05
75221;BME280;63802;53.232;6.570;2023-05-17T07:07:54;102783.53;;;9.50;74.63
75221;BME280;63802;53.232;6.570;2023-05-17T07:10:20;102810.78;;;9.85;73.48
75221;BME280;63802;53.232;6.570;2023-05-17T07:12:46;102795.13;;;9.91;72.21
75221;BME280;63802;53.232;6.570;2023-05-17T07:15:11;102805.75;;;10.01;72.16
75221;BME280;63802;53.232;6.570;2023-05-17T07:17:37;102813.53;;;10.07;71.43
75221;BME280;63802;53.232;6.570;2023-05-17T07:20:03;102814.91;;;10.19;71.37
75221;BME280;63802;53.232;6.570;2023-05-17T07:22:30;102786.53;;;10.06;73.40
75221;BME280;63802;53.232;6.570;2023-05-17T07:24:55;102818.03;;;10.34;73.10
75221;BME280;63802;53.232;6.570;2023-05-17T07:27:21;102807.53;;;10.41;73.28
75221;BME280;63802;53.232;6.570;2023-05-17T07:29:46;102824.19;;;10.40;72.25
75221;BME280;63802;53.232;6.570;2023-05-17T07:32:11;102811.97;;;9.93;72.64
75221;BME280;63802;53.232;6.570;2023-05-17T07:34:37;102830.78;;;10.03;72.88
75221;BME280;63802;53.232;6.570;2023-05-17T07:37:02;102820.03;;;10.20;73.12
75221;BME280;63802;53.232;6.570;2023-05-17T07:39:28;102816.50;;;10.42;71.41
75221;BME280;63802;53.232;6.570;2023-05-17T07:41:53;102846.63;;;10.37;70.07
75221;BME280;63802;53.232;6.570;2023-05-17T07:44:19;102846.75;;;10.54;70.58
75221;BME280;63802;53.232;6.570;2023-05-17T07:46:46;102838.28;;;10.55;69.54
75221;BME280;63802;53.232;6.570;2023-05-17T07:49:12;102844.47;;;10.47;69.13
75221;BME280;63802;53.232;6.570;2023-05-17T07:51:38;102847.69;;;10.49;68.95
75221;BME280;63802;53.232;6.570;2023-05-17T07:54:04;102858.84;;;10.39;70.48
75221;BME280;63802;53.232;6.570;2023-05-17T07:56:29;102831.06;;;10.37;71.98
75221;BME280;63802;53.232;6.570;2023-05-17T07:58:55;102839.88;;;10.34;71.42
75221;BME280;63802;53.232;6.570;2023-05-17T08:01:21;102860.34;;;10.67;70.25
75221;BME280;63802;53.232;6.570;2023-05-17T08:03:48;102867.16;;;10.87;71.39
75221;BME280;63802;53.232;6.570;2023-05-17T08:06:15;102856.50;;;11.08;70.62
75221;BME280;63802;53.232;6.570;2023-05-17T08:08:40;102854.81;;;10.90;68.54
75221;BME280;63802;53.232;6.570;2023-05-17T08:11:06;102842.94;;;10.63;68.19
75221;BME280;63802;53.232;6.570;2023-05-17T08:13:31;102862.88;;;10.64;67.30
75221;BME280;63802;53.232;6.570;2023-05-17T08:15:57;102871.69;;;10.61;63.89
75221;BME280;63802;53.232;6.570;2023-05-17T08:18:30;102869.88;;;10.78;62.96
75221;BME280;63802;53.232;6.570;2023-05-17T08:20:55;102840.84;;;10.91;62.13
75221;BME280;63802;53.232;6.570;2023-05-17T08:23:21;102862.66;;;10.83;60.88
75221;BME280;63802;53.232;6.570;2023-05-17T08:25:46;102861.63;;;11.01;60.26
75221;BME280;63802;53.232;6.570;2023-05-17T08:28:12;102872.31;;;11.28;59.77
75221;BME280;63802;53.232;6.570;2023-05-17T08:30:37;102875.28;;;11.57;58.77
75221;BME280;63802;53.232;6.570;2023-05-17T08:33:03;102870.06;;;11.86;58.33
75221;BME280;63802;53.232;6.570;2023-05-17T08:35:28;102874.72;;;11.86;58.16
75221;BME280;63802;53.232;6.570;2023-05-17T08:37:54;102849.88;;;11.48;55.45
75221;BME280;63802;53.232;6.570;2023-05-17T08:40:22;102846.38;;;11.90;57.07
75221;BME280;63802;53.232;6.570;2023-05-17T08:42:51;102878.88;;;12.43;54.51
75221;BME280;63802;53.232;6.570;2023-05-17T08:45:18;102863.28;;;12.09;54.36
75221;BME280;63802;53.232;6.570;2023-05-17T08:47:44;102885.66;;;12.46;54.43
75221;BME280;63802;53.232;6.570;2023-05-17T08:50:11;102885.69;;;12.20;55.36
75221;BME280;63802;53.232;6.570;2023-05-17T08:52:38;102900.66;;;12.23;56.33
75221;BME280;63802;53.232;6.570;2023-05-17T08:55:05;102895.50;;;12.21;56.82
75221;BME280;63802;53.232;6.570;2023-05-17T08:57:33;102884.72;;;12.25;56.99
75221;BME280;63802;53.232;6.570;2023-05-17T09:00:04;102885.66;;;12.29;57.04
75221;BME280;63802;53.232;6.570;2023-05-17T09:02:40;102881.34;;;12.10;58.32
75221;BME280;63802;53.232;6.570;2023-05-17T09:05:06;102899.53;;;12.24;59.08
75221;BME280;63802;53.232;6.570;2023-05-17T09:07:32;102897.59;;;12.16;59.38
75221;BME280;63802;53.232;6.570;2023-05-17T09:09:58;102909.34;;;12.16;59.18
75221;BME280;63802;53.232;6.570;2023-05-17T09:12:23;102899.84;;;12.14;58.70
75221;BME280;63802;53.232;6.570;2023-05-17T09:14:49;102905.66;;;12.03;56.42
75221;BME280;63802;53.232;6.570;2023-05-17T09:17:19;102908.50;;;11.81;57.13
75221;BME280;63802;53.232;6.570;2023-05-17T09:19:46;102904.03;;;12.02;57.41
75221;BME280;63802;53.232;6.570;2023-05-17T09:22:13;102909.66;;;12.32;59.71
75221;BME280;63802;53.232;6.570;2023-05-17T09:24:39;102902.38;;;12.53;56.25
75221;BME280;63802;53.232;6.570;2023-05-17T09:27:06;102911.66;;;12.86;56.67
75221;BME280;63802;53.232;6.570;2023-05-17T09:29:32;102916.06;;;12.78;53.83
75221;BME280;63802;53.232;6.570;2023-05-17T09:32:14;102902.38;;;12.53;53.96
75221;BME280;63802;53.232;6.570;2023-05-17T09:34:41;102910.22;;;12.80;55.36
75221;BME280;63802;53.232;6.570;2023-05-17T09:37:15;102908.84;;;12.40;56.74
75221;BME280;63802;53.232;6.570;2023-05-17T09:39:41;102927.56;;;12.21;55.00
75221;BME280;63802;53.232;6.570;2023-05-17T09:42:09;102921.53;;;11.76;54.87
75221;BME280;63802;53.232;6.570;2023-05-17T09:44:55;102922.66;;;11.83;55.77
75221;BME280;63802;53.232;6.570;2023-05-17T09:47:25;102919.25;;;11.69;56.29
75221;BME280;63802;53.232;6.570;2023-05-17T09:49:51;102910.44;;;11.33;53.68
75221;BME280;63802;53.232;6.570;2023-05-17T09:52:18;102924.63;;;11.83;55.46
75221;BME280;63802;53.232;6.570;2023-05-17T09:54:51;102929.81;;;12.19;53.01
75221;BME280;63802;53.232;6.570;2023-05-17T09:57:17;102931.66;;;12.95;53.89
75221;BME280;63802;53.232;6.570;2023-05-17T09:59:43;102937.81;;;13.38;51.58
75221;BME280;63802;53.232;6.570;2023-05-17T10:02:16;102946.75;;;13.56;50.73
75221;BME280;63802;53.232;6.570;2023-05-17T10:04:43;102944.69;;;13.44;50.70
75221;BME280;63802;53.232;6.570;2023-05-17T10:07:10;102949.25;;;12.86;51.10
75221;BME280;63802;53.232;6.570;2023-05-17T10:09:36;102949.75;;;12.62;50.89
75221;BME280;63802;53.232;6.570;2023-05-17T10:12:02;102928.00;;;12.14;51.48
75221;BME280;63802;53.232;6.570;2023-05-17T10:14:30;102953.00;;;12.47;54.01
75221;BME280;63802;53.232;6.570;2023-05-17T10:16:57;102942.00;;;12.81;53.59
75221;BME280;63802;53.232;6.570;2023-05-17T10:19:24;102955.69;;;12.72;55.45
75221;BME280;63802;53.232;6.570;2023-05-17T10:21:51;102954.00;;;13.23;53.56
75221;BME280;63802;53.232;6.570;2023-05-17T10:24:18;102959.69;;;13.09;50.34
75221;BME280;63802;53.232;6.570;2023-05-17T10:26:44;102923.31;;;12.66;51.13
75221;BME280;63802;53.232;6.570;2023-05-17T10:29:09;102953.81;;;13.28;50.59
75221;BME280;63802;53.232;6.570;2023-05-17T10:31:35;102947.94;;;12.92;50.39
75221;BME280;63802;53.232;6.570;2023-05-17T10:34:03;102955.19;;;12.79;50.38
75221;BME280;63802;53.232;6.570;2023-05-17T10:36:29;102921.22;;;12.63;50.21
75221;BME280;63802;53.232;6.570;2023-05-17T10:38:55;102938.88;;;12.91;52.61
75221;BME280;63802;53.232;6.570;2023-05-17T10:41:25;102933.22;;;13.13;52.62
75221;BME280;63802;53.232;6.570;2023-05-17T10:43:52;102956.50;;;13.45;52.42
75221;BME280;63802;53.232;6.570;2023-05-17T10:46:19;102965.94;;;13.56;52.19
75221;BME280;63802;53.232;6.570;2023-05-17T10:48:51;102936.63;;;13.02;52.43
75221;BME280;63802;53.232;6.570;2023-05-17T10:51:24;102964.66;;;12.99;55.19
75221;BME280;63802;53.232;6.570;2023-05-17T10:56:33;102963.53;;;13.55;54.07
75221;BME280;63802;53.232;6.570;2023-05-17T10:59:24;102965.00;;;14.52;51.97
75221;BME280;63802;53.232;6.570;2023-05-17T11:04:21;102960.50;;;13.48;50.07
75221;BME280;63802;53.232;6.570;2023-05-17T11:06:50;102955.38;;;13.37;50.87
75221;BME280;63802;53.232;6.570;2023-05-17T11:09:16;102964.28;;;13.64;49.82
75221;BME280;63802;53.232;6.570;2023-05-17T11:12:09;102954.25;;;13.38;49.23
75221;BME280;63802;53.232;6.570;2023-05-17T11:17:20;102954.03;;;14.31;48.50
75221;BME280;63802;53.232;6.570;2023-05-17T11:20:06;102953.53;;;14.29;48.06
75221;BME280;63802;53.232;6.570;2023-05-17T11:22:37;102966.03;;;15.25;47.84
75221;BME280;63802;53.232;6.570;2023-05-17T11:25:13;102969.81;;;15.32;46.81
75221;BME280;63802;53.232;6.570;2023-05-17T11:27:49;102976.84;;;14.85;45.75
75221;BME280;63802;53.232;6.570;2023-05-17T11:30:29;102960.56;;;14.59;46.91
75221;BME280;63802;53.232;6.570;2023-05-17T11:32:59;102969.44;;;15.22;47.82
75221;BME280;63802;53.232;6.570;2023-05-17T11:35:31;102970.28;;;14.77;45.44
75221;BME280;63802;53.232;6.570;2023-05-17T11:38:17;102968.16;;;14.62;46.43
75221;BME280;63802;53.232;6.570;2023-05-17T11:40:44;102970.34;;;13.78;47.65
75221;BME280;63802;53.232;6.570;2023-05-17T11:43:17;102976.16;;;14.26;48.55
75221;BME280;63802;53.232;6.570;2023-05-17T11:45:54;102963.19;;;14.89;46.27
75221;BME280;63802;53.232;6.570;2023-05-17T11:48:24;102950.00;;;15.75;46.66
75221;BME280;63802;53.232;6.570;2023-05-17T11:50:52;102951.72;;;15.80;43.32
75221;BME280;63802;53.232;6.570;2023-05-17T11:53:18;102952.03;;;15.18;42.41
75221;BME280;63802;53.232;6.570;2023-05-17T11:55:51;102949.38;;;14.64;43.57
75221;BME280;63802;53.232;6.570;2023-05-17T11:58:19;102948.44;;;14.93;44.01
75221;BME280;63802;53.232;6.570;2023-05-17T12:00:51;102920.53;;;15.39;44.99
75221;BME280;63802;53.232;6.570;2023-05-17T12:03:19;102951.28;;;16.30;43.97
75221;BME280;63802;53.232;6.570;2023-05-17T12:05:46;102939.88;;;15.07;43.91
75221;BME280;63802;53.232;6.570;2023-05-17T12:08:18;102952.72;;;15.15;46.01
75221;BME280;63802;53.232;6.570;2023-05-17T12:10:49;102954.47;;;15.80;44.31
75221;BME280;63802;53.232;6.570;2023-05-17T12:13:16;102944.41;;;16.24;44.78
75221;BME280;63802;53.232;6.570;2023-05-17T12:15:53;102954.72;;;15.87;43.68
75221;BME280;63802;53.232;6.570;2023-05-17T12:18:20;102936.72;;;15.77;42.94
75221;BME280;63802;53.232;6.570;2023-05-17T12:20:56;102930.72;;;15.15;44.34
75221;BME280;63802;53.232;6.570;2023-05-17T12:23:31;102926.59;;;15.09;44.49
75221;BME280;63802;53.232;6.570;2023-05-17T12:28:32;102954.38;;;14.95;44.33
75221;BME280;63802;53.232;6.570;2023-05-17T12:30:58;102963.06;;;14.52;47.08
75221;BME280;63802;53.232;6.570;2023-05-17T12:33:32;102936.13;;;14.25;46.25
75221;BME280;63802;53.232;6.570;2023-05-17T12:36:01;102931.25;;;14.51;47.26
75221;BME280;63802;53.232;6.570;2023-05-17T12:38:29;102965.19;;;14.67;47.08
75221;BME280;63802;53.232;6.570;2023-05-17T12:40:59;102959.69;;;14.05;45.37
75221;BME280;63802;53.232;6.570;2023-05-17T12:43:25;102962.47;;;13.97;47.43
75221;BME280;63802;53.232;6.570;2023-05-17T12:45:52;102963.88;;;14.53;47.49
75221;BME280;63802;53.232;6.570;2023-05-17T12:48:17;102960.66;;;14.51;47.44
75221;BME280;63802;53.232;6.570;2023-05-17T12:50:43;102925.44;;;14.32;47.07
75221;BME280;63802;53.232;6.570;2023-05-17T12:53:10;102954.88;;;14.64;47.42
75221;BME280;63802;53.232;6.570;2023-05-17T12:55:36;102958.66;;;14.39;46.16
75221;BME280;63802;53.232;6.570;2023-05-17T12:58:02;102949.66;;;14.30;46.46
75221;BME280;63802;53.232;6.570;2023-05-17T13:00:29;102949.94;;;14.37;45.36
75221;BME280;63802;53.232;6.570;2023-05-17T13:02:55;102953.47;;;14.58;44.87
75221;BME280;63802;53.232;6.570;2023-05-17T13:05:21;102954.09;;;14.43;45.89
75221;BME280;63802;53.232;6.570;2023-05-17T13:07:46;102954.41;;;14.21;47.17
75221;BME280;63802;53.232;6.570;2023-05-17T13:10:26;102947.97;;;14.17;47.97